MSC Federica — HPQE — position and weather

sailwx.info

Track history (hours):
 
Tides and Currents Weather Stations Pressure Air Temp Water Temp Dewpoint Dewpoint Depression Visibility Wind Speed Wind Dir Waves Ship Positions

MSC Federica

Last reported at 2016-Apr-05 01:33 UTC. Time now 2016-May-05 08:33 UTC.
Position N 26°15' W 079°26'.
Warning: this ship's position is 30 days out of date.

Length 294 m; draft 9.2 m.

Type: Cargo ship. MMSI: 357363000.

Date/timePositionNaut miles runAvg speedWind from/ knotsBaromVisibWave heightAir tempDewpointWater temp
2016-Apr-05 01:33N 26°15' W 079°26'1717.2
2016-Apr-05 00:33N 26°11' W 079°44'1717.0
2016-Apr-04 23:33N 26°06' W 080°02'4 4.2
2016-Apr-04 22:32N 26°04' W 080°07'0 0.0
2016-Apr-04 21:32N 26°04' W 080°07'0 0.0
2016-Apr-04 20:32N 26°04' W 080°07'0 0.0
2016-Apr-04 19:32N 26°04' W 080°07'0 0.0
2016-Apr-04 18:29N 26°04' W 080°07'0 0.0
2016-Apr-04 17:29N 26°04' W 080°07'0 0.0
2016-Apr-04 16:32N 26°04' W 080°07'0 0.0
2016-Apr-04 15:32N 26°04' W 080°07'0 0.0
2016-Apr-04 14:32N 26°04' W 080°07'0 0.0
2016-Apr-04 13:32N 26°04' W 080°07'0 0.0
2016-Apr-04 12:32N 26°04' W 080°07'0 0.0
2016-Apr-04 11:32N 26°04' W 080°07'0 0.0
2016-Apr-04 10:32N 26°04' W 080°07'0 0.0
2016-Apr-04 09:32N 26°04' W 080°07'0 0.0
2016-Apr-04 08:33N 26°04' W 080°07'3 3.1
2016-Apr-04 07:33N 26°06' W 080°04'6 6.3
2016-Apr-04 06:33N 26°11' W 079°60'1110.6
2016-Apr-04 05:33N 26°21' W 079°59'1010.5
2016-Apr-04 04:33N 26°32' W 079°58'1110.8
2016-Apr-04 03:33N 26°42' W 079°57'1110.7
2016-Apr-04 02:33N 26°53' W 079°56'1110.7
2016-Apr-04 01:33N 27°04' W 079°56'342 8.5
2016-Apr-02 09:06N 32°46' W 079°53'16911.6
2016-Apr-01 18:33N 33°53' W 076°48'35513.6
2016-Mar-31 16:29N 39°22' W 074°00'1415.1
2016-Mar-31 15:33N 39°36' W 073°55'1515.2
2016-Mar-31 14:33N 39°50' W 073°51'1615.6
2016-Mar-31 13:32N 40°06' W 073°50'20 8.9
2016-Mar-31 11:16N 40°26' W 073°48'6 8.8
2016-Mar-31 10:33N 40°30' W 073°56'1211.8
2016-Mar-31 09:33N 40°39' W 074°05'3 3.3
2016-Mar-31 08:33N 40°41' W 074°09'1 0.8
2016-Mar-31 07:30N 40°41' W 074°09'0 0.0
2016-Mar-31 06:27N 40°41' W 074°09'0 0.0
2016-Mar-31 05:33N 40°41' W 074°09'0 0.0
2016-Mar-31 04:33N 40°41' W 074°09'0 0.0
2016-Mar-31 03:33N 40°41' W 074°09'0 0.0
2016-Mar-31 02:33N 40°41' W 074°09'0 0.0
2016-Mar-31 01:18N 40°41' W 074°09'0 0.0
2016-Mar-31 00:30N 40°41' W 074°09'0 0.2
2016-Mar-30 23:33N 40°41' W 074°09'0 0.0
2016-Mar-30 22:33N 40°41' W 074°09'0 0.0
2016-Mar-30 21:33N 40°41' W 074°09'0 0.0
2016-Mar-30 20:27N 40°41' W 074°09'0 0.0
2016-Mar-30 19:33N 40°41' W 074°09'0 0.0
2016-Mar-30 18:33N 40°41' W 074°09'0 0.0
2016-Mar-30 17:33N 40°41' W 074°09'0 0.0
2016-Mar-30 16:33N 40°41' W 074°09'0 0.0
2016-Mar-30 15:33N 40°41' W 074°09'0 0.0
2016-Mar-30 14:33N 40°41' W 074°09'0 0.0
2016-Mar-30 13:33N 40°41' W 074°09'0 0.0
2016-Mar-30 12:33N 40°41' W 074°09'0 0.0
2016-Mar-30 11:30N 40°41' W 074°09'0 0.0
2016-Mar-30 10:33N 40°41' W 074°09'2 2.2
2016-Mar-30 09:34N 40°39' W 074°09'6 5.2
2016-Mar-30 08:26N 40°36' W 074°02'910.8
2016-Mar-30 07:34N 40°29' W 073°54'8 7.4
2016-Mar-30 06:27N 40°23' W 073°47'3110.1
2016-Mar-30 03:21N 39°52' W 073°43'912.0
2016-Mar-30 02:33N 39°42' W 073°42'1111.1
2016-Mar-30 01:33N 39°31' W 073°46'1111.4
2016-Mar-30 00:33N 39°23' W 073°56'4411.0
2016-Mar-29 20:34N 38°48' W 074°30'9 8.4
2016-Mar-29 19:31N 38°46' W 074°41'9 9.2
2016-Mar-29 18:34N 38°46' W 074°52'8 8.3
2016-Mar-29 17:33N 38°48' W 075°03'1010.5
2016-Mar-29 16:34N 38°58' W 075°07'1616.3
2016-Mar-29 15:34N 39°12' W 075°17'1817.6
2016-Mar-29 14:33N 39°26' W 075°32'1515.2
2016-Mar-29 13:34N 39°41' W 075°31'1212.2
2016-Mar-29 12:34N 39°50' W 075°21'1010.3
2016-Mar-29 11:34N 39°53' W 075°08'1 0.9
2016-Mar-29 10:34N 39°54' W 075°08'0 0.0
2016-Mar-29 09:33N 39°54' W 075°08'0 0.0
2016-Mar-29 08:34N 39°54' W 075°08'0 0.0
2016-Mar-29 07:33N 39°54' W 075°08'0 0.0
2016-Mar-29 06:33N 39°54' W 075°08'0 0.0
2016-Mar-29 05:34N 39°54' W 075°08'0 0.0
2016-Mar-29 04:33N 39°54' W 075°08'0 0.0
2016-Mar-29 03:34N 39°54' W 075°08'0 0.0
2016-Mar-29 02:34N 39°54' W 075°08'0 0.0
2016-Mar-29 01:34N 39°54' W 075°08'0 0.0
2016-Mar-29 00:34N 39°54' W 075°08'0 0.0
2016-Mar-28 23:34N 39°54' W 075°08'0 0.0
2016-Mar-28 22:34N 39°54' W 075°08'0 0.0
2016-Mar-28 21:34N 39°54' W 075°08'0 0.0
2016-Mar-28 20:34N 39°54' W 075°08'0 0.0
2016-Mar-28 19:34N 39°54' W 075°08'0 0.0
2016-Mar-28 18:34N 39°54' W 075°08'0 0.0
2016-Mar-28 17:33N 39°54' W 075°08'0 0.0
2016-Mar-28 16:34N 39°54' W 075°08'0 0.0
2016-Mar-28 15:34N 39°54' W 075°08'2 1.6
2016-Mar-28 14:34N 39°53' W 075°09'3 3.0
2016-Mar-28 13:34N 39°52' W 075°13'4 4.0
2016-Mar-28 12:34N 39°54' W 075°08'0 0.1
2016-Mar-28 11:31N 39°54' W 075°08'0 0.0
2016-Mar-28 10:32N 39°54' W 075°08'0 0.0
2016-Mar-28 09:33N 39°54' W 075°08'0 0.0
2016-Mar-28 08:34N 39°54' W 075°08'0 0.0
2016-Mar-28 07:34N 39°54' W 075°08'0 0.0
2016-Mar-28 06:34N 39°54' W 075°08'0 0.0
2016-Mar-28 05:34N 39°54' W 075°08'0 0.0
2016-Mar-28 04:34N 39°54' W 075°08'0 0.0
2016-Mar-28 03:34N 39°54' W 075°08'0 0.0
2016-Mar-28 02:34N 39°54' W 075°08'0 0.0
2016-Mar-28 01:34N 39°54' W 075°08'0 0.0
2016-Mar-28 00:34N 39°54' W 075°08'0 0.0
2016-Mar-27 23:34N 39°54' W 075°08'0 0.0
2016-Mar-27 22:34N 39°54' W 075°08'0 0.0
2016-Mar-27 21:34N 39°54' W 075°08'0 0.0
2016-Mar-27 20:33N 39°54' W 075°08'3 3.4
2016-Mar-27 19:34N 39°53' W 075°12'1010.1
2016-Mar-27 18:33N 39°49' W 075°24'1313.1
2016-Mar-27 17:33N 39°38' W 075°34'1515.2
2016-Mar-27 16:33N 39°23' W 075°29'1918.9
2016-Mar-27 15:33N 39°08' W 075°14'1818.1
2016-Mar-27 14:33N 38°52' W 075°04'9 8.8
2016-Mar-27 13:33N 38°45' W 074°57'9 8.8
2016-Mar-27 12:33N 38°38' W 074°50'13 9.2
2016-Mar-27 11:09N 38°28' W 074°40'5 6.7
2016-Mar-27 10:25N 38°23' W 074°39'1 1.0
2016-Mar-27 09:30N 38°23' W 074°38'2 1.8
2016-Mar-27 08:33N 38°22' W 074°38'  
Track history (hours):
 
Tides and Currents Weather Stations Pressure Air Temp Water Temp Dewpoint Dewpoint Depression Visibility Wind Speed Wind Dir Waves Ship Positions

MSC Federica

Last reported at 2016-Apr-05 01:33 UTC. Time now 2016-May-05 08:33 UTC.
Position N 26°15' W 079°26'.
Warning: this ship's position is 30 days out of date.

Length 294 m; draft 9.2 m.

Type: Cargo ship. MMSI: 357363000.

Date/timePositionNaut miles runAvg speedWind from/ knotsBaromVisibWave heightAir tempDewpointWater temp
2016-Apr-05 01:33N 26°15' W 079°26'1717.2
2016-Apr-05 00:33N 26°11' W 079°44'1717.0
2016-Apr-04 23:33N 26°06' W 080°02'4 4.2
2016-Apr-04 22:32N 26°04' W 080°07'0 0.0
2016-Apr-04 21:32N 26°04' W 080°07'0 0.0
2016-Apr-04 20:32N 26°04' W 080°07'0 0.0
2016-Apr-04 19:32N 26°04' W 080°07'0 0.0
2016-Apr-04 18:29N 26°04' W 080°07'0 0.0
2016-Apr-04 17:29N 26°04' W 080°07'0 0.0
2016-Apr-04 16:32N 26°04' W 080°07'0 0.0
2016-Apr-04 15:32N 26°04' W 080°07'0 0.0
2016-Apr-04 14:32N 26°04' W 080°07'0 0.0
2016-Apr-04 13:32N 26°04' W 080°07'0 0.0
2016-Apr-04 12:32N 26°04' W 080°07'0 0.0
2016-Apr-04 11:32N 26°04' W 080°07'0 0.0
2016-Apr-04 10:32N 26°04' W 080°07'0 0.0
2016-Apr-04 09:32N 26°04' W 080°07'0 0.0
2016-Apr-04 08:33N 26°04' W 080°07'3 3.1
2016-Apr-04 07:33N 26°06' W 080°04'6 6.3
2016-Apr-04 06:33N 26°11' W 079°60'1110.6
2016-Apr-04 05:33N 26°21' W 079°59'1010.5
2016-Apr-04 04:33N 26°32' W 079°58'1110.8
2016-Apr-04 03:33N 26°42' W 079°57'1110.7
2016-Apr-04 02:33N 26°53' W 079°56'1110.7
2016-Apr-04 01:33N 27°04' W 079°56'342 8.5
2016-Apr-02 09:06N 32°46' W 079°53'16911.6
2016-Apr-01 18:33N 33°53' W 076°48'35513.6
2016-Mar-31 16:29N 39°22' W 074°00'1415.1
2016-Mar-31 15:33N 39°36' W 073°55'1515.2
2016-Mar-31 14:33N 39°50' W 073°51'1615.6
2016-Mar-31 13:32N 40°06' W 073°50'20 8.9
2016-Mar-31 11:16N 40°26' W 073°48'6 8.8
2016-Mar-31 10:33N 40°30' W 073°56'1211.8
2016-Mar-31 09:33N 40°39' W 074°05'3 3.3
2016-Mar-31 08:33N 40°41' W 074°09'1 0.8
2016-Mar-31 07:30N 40°41' W 074°09'0 0.0
2016-Mar-31 06:27N 40°41' W 074°09'0 0.0
2016-Mar-31 05:33N 40°41' W 074°09'0 0.0
2016-Mar-31 04:33N 40°41' W 074°09'0 0.0
2016-Mar-31 03:33N 40°41' W 074°09'0 0.0
2016-Mar-31 02:33N 40°41' W 074°09'0 0.0
2016-Mar-31 01:18N 40°41' W 074°09'0 0.0
2016-Mar-31 00:30N 40°41' W 074°09'0 0.2
2016-Mar-30 23:33N 40°41' W 074°09'0 0.0
2016-Mar-30 22:33N 40°41' W 074°09'0 0.0
2016-Mar-30 21:33N 40°41' W 074°09'0 0.0
2016-Mar-30 20:27N 40°41' W 074°09'0 0.0
2016-Mar-30 19:33N 40°41' W 074°09'0 0.0
2016-Mar-30 18:33N 40°41' W 074°09'0 0.0
2016-Mar-30 17:33N 40°41' W 074°09'0 0.0
2016-Mar-30 16:33N 40°41' W 074°09'0 0.0
2016-Mar-30 15:33N 40°41' W 074°09'0 0.0
2016-Mar-30 14:33N 40°41' W 074°09'0 0.0
2016-Mar-30 13:33N 40°41' W 074°09'0 0.0
2016-Mar-30 12:33N 40°41' W 074°09'0 0.0
2016-Mar-30 11:30N 40°41' W 074°09'0 0.0
2016-Mar-30 10:33N 40°41' W 074°09'2 2.2
2016-Mar-30 09:34N 40°39' W 074°09'6 5.2
2016-Mar-30 08:26N 40°36' W 074°02'910.8
2016-Mar-30 07:34N 40°29' W 073°54'8 7.4
2016-Mar-30 06:27N 40°23' W 073°47'3110.1
2016-Mar-30 03:21N 39°52' W 073°43'912.0
2016-Mar-30 02:33N 39°42' W 073°42'1111.1
2016-Mar-30 01:33N 39°31' W 073°46'1111.4
2016-Mar-30 00:33N 39°23' W 073°56'4411.0
2016-Mar-29 20:34N 38°48' W 074°30'9 8.4
2016-Mar-29 19:31N 38°46' W 074°41'9 9.2
2016-Mar-29 18:34N 38°46' W 074°52'8 8.3
2016-Mar-29 17:33N 38°48' W 075°03'1010.5
2016-Mar-29 16:34N 38°58' W 075°07'1616.3
2016-Mar-29 15:34N 39°12' W 075°17'1817.6
2016-Mar-29 14:33N 39°26' W 075°32'1515.2
2016-Mar-29 13:34N 39°41' W 075°31'1212.2
2016-Mar-29 12:34N 39°50' W 075°21'1010.3
2016-Mar-29 11:34N 39°53' W 075°08'1 0.9
2016-Mar-29 10:34N 39°54' W 075°08'0 0.0
2016-Mar-29 09:33N 39°54' W 075°08'0 0.0
2016-Mar-29 08:34N 39°54' W 075°08'0 0.0
2016-Mar-29 07:33N 39°54' W 075°08'0 0.0
2016-Mar-29 06:33N 39°54' W 075°08'0 0.0
2016-Mar-29 05:34N 39°54' W 075°08'0 0.0
2016-Mar-29 04:33N 39°54' W 075°08'0 0.0
2016-Mar-29 03:34N 39°54' W 075°08'0 0.0
2016-Mar-29 02:34N 39°54' W 075°08'0 0.0
2016-Mar-29 01:34N 39°54' W 075°08'0 0.0
2016-Mar-29 00:34N 39°54' W 075°08'0 0.0
2016-Mar-28 23:34N 39°54' W 075°08'0 0.0
2016-Mar-28 22:34N 39°54' W 075°08'0 0.0
2016-Mar-28 21:34N 39°54' W 075°08'0 0.0
2016-Mar-28 20:34N 39°54' W 075°08'0 0.0
2016-Mar-28 19:34N 39°54' W 075°08'0 0.0
2016-Mar-28 18:34N 39°54' W 075°08'0 0.0
2016-Mar-28 17:33N 39°54' W 075°08'0 0.0
2016-Mar-28 16:34N 39°54' W 075°08'0 0.0
2016-Mar-28 15:34N 39°54' W 075°08'2 1.6
2016-Mar-28 14:34N 39°53' W 075°09'3 3.0
2016-Mar-28 13:34N 39°52' W 075°13'4 4.0
2016-Mar-28 12:34N 39°54' W 075°08'0 0.1
2016-Mar-28 11:31N 39°54' W 075°08'0 0.0
2016-Mar-28 10:32N 39°54' W 075°08'0 0.0
2016-Mar-28 09:33N 39°54' W 075°08'0 0.0
2016-Mar-28 08:34N 39°54' W 075°08'0 0.0
2016-Mar-28 07:34N 39°54' W 075°08'0 0.0
2016-Mar-28 06:34N 39°54' W 075°08'0 0.0
2016-Mar-28 05:34N 39°54' W 075°08'0 0.0
2016-Mar-28 04:34N 39°54' W 075°08'0 0.0
2016-Mar-28 03:34N 39°54' W 075°08'0 0.0
2016-Mar-28 02:34N 39°54' W 075°08'0 0.0
2016-Mar-28 01:34N 39°54' W 075°08'0 0.0
2016-Mar-28 00:34N 39°54' W 075°08'0 0.0
2016-Mar-27 23:34N 39°54' W 075°08'0 0.0
2016-Mar-27 22:34N 39°54' W 075°08'0 0.0
2016-Mar-27 21:34N 39°54' W 075°08'0 0.0
2016-Mar-27 20:33N 39°54' W 075°08'3 3.4
2016-Mar-27 19:34N 39°53' W 075°12'1010.1
2016-Mar-27 18:33N 39°49' W 075°24'1313.1
2016-Mar-27 17:33N 39°38' W 075°34'1515.2
2016-Mar-27 16:33N 39°23' W 075°29'1918.9
2016-Mar-27 15:33N 39°08' W 075°14'1818.1
2016-Mar-27 14:33N 38°52' W 075°04'9 8.8
2016-Mar-27 13:33N 38°45' W 074°57'9 8.8
2016-Mar-27 12:33N 38°38' W 074°50'13 9.2
2016-Mar-27 11:09N 38°28' W 074°40'5 6.7
2016-Mar-27 10:25N 38°23' W 074°39'1 1.0
2016-Mar-27 09:30N 38°23' W 074°38'2 1.8
2016-Mar-27 08:33N 38°22' W 074°38'  

Dump ship's entire track history